sensor_id;sensor_type;location;lat;lon;timestamp;P1;durP1;ratioP1;P2;durP2;ratioP2
21038;SDS011;10678;51.002;4.786;2023-03-12T00:02:16;7.10;;;2.70;;
21038;SDS011;10678;51.002;4.786;2023-03-12T00:04:41;9.07;;;2.90;;
21038;SDS011;10678;51.002;4.786;2023-03-12T00:07:07;12.37;;;3.20;;
21038;SDS011;10678;51.002;4.786;2023-03-12T00:09:33;7.93;;;2.60;;
21038;SDS011;10678;51.002;4.786;2023-03-12T00:12:00;6.57;;;2.37;;
21038;SDS011;10678;51.002;4.786;2023-03-12T00:14:26;6.70;;;2.73;;
21038;SDS011;10678;51.002;4.786;2023-03-12T00:16:51;7.33;;;2.93;;
21038;SDS011;10678;51.002;4.786;2023-03-12T00:19:17;11.27;;;3.03;;
21038;SDS011;10678;51.002;4.786;2023-03-12T00:21:43;13.57;;;3.27;;
21038;SDS011;10678;51.002;4.786;2023-03-12T00:24:08;8.00;;;2.90;;
21038;SDS011;10678;51.002;4.786;2023-03-12T00:26:34;13.77;;;3.23;;
21038;SDS011;10678;51.002;4.786;2023-03-12T00:28:59;9.60;;;3.67;;
21038;SDS011;10678;51.002;4.786;2023-03-12T00:31:26;12.13;;;2.80;;
21038;SDS011;10678;51.002;4.786;2023-03-12T00:33:55;15.10;;;3.77;;
21038;SDS011;10678;51.002;4.786;2023-03-12T00:36:22;11.10;;;3.03;;
21038;SDS011;10678;51.002;4.786;2023-03-12T00:38:50;6.43;;;2.90;;
21038;SDS011;10678;51.002;4.786;2023-03-12T00:41:17;8.97;;;3.70;;
21038;SDS011;10678;51.002;4.786;2023-03-12T00:43:44;5.97;;;3.10;;
21038;SDS011;10678;51.002;4.786;2023-03-12T00:46:13;11.67;;;3.30;;
21038;SDS011;10678;51.002;4.786;2023-03-12T00:48:39;7.77;;;2.90;;
21038;SDS011;10678;51.002;4.786;2023-03-12T00:51:05;10.77;;;3.20;;
21038;SDS011;10678;51.002;4.786;2023-03-12T00:53:31;8.73;;;3.03;;
21038;SDS011;10678;51.002;4.786;2023-03-12T00:55:57;8.33;;;3.63;;
21038;SDS011;10678;51.002;4.786;2023-03-12T00:58:23;11.57;;;3.53;;
21038;SDS011;10678;51.002;4.786;2023-03-12T01:00:48;8.63;;;3.50;;
21038;SDS011;10678;51.002;4.786;2023-03-12T01:03:14;9.53;;;3.20;;
21038;SDS011;10678;51.002;4.786;2023-03-12T01:05:39;9.57;;;3.80;;
21038;SDS011;10678;51.002;4.786;2023-03-12T01:08:06;7.33;;;3.30;;
21038;SDS011;10678;51.002;4.786;2023-03-12T01:10:32;8.03;;;3.07;;
21038;SDS011;10678;51.002;4.786;2023-03-12T01:12:58;7.03;;;3.30;;
21038;SDS011;10678;51.002;4.786;2023-03-12T01:15:24;8.67;;;3.50;;
21038;SDS011;10678;51.002;4.786;2023-03-12T01:17:50;9.67;;;4.03;;
21038;SDS011;10678;51.002;4.786;2023-03-12T01:20:16;10.77;;;4.20;;
21038;SDS011;10678;51.002;4.786;2023-03-12T01:22:42;11.63;;;3.67;;
21038;SDS011;10678;51.002;4.786;2023-03-12T01:25:08;10.23;;;3.90;;
21038;SDS011;10678;51.002;4.786;2023-03-12T01:27:34;9.97;;;3.70;;
21038;SDS011;10678;51.002;4.786;2023-03-12T01:30:00;7.47;;;3.23;;
21038;SDS011;10678;51.002;4.786;2023-03-12T01:32:25;13.30;;;3.97;;
21038;SDS011;10678;51.002;4.786;2023-03-12T01:34:51;13.80;;;3.70;;
21038;SDS011;10678;51.002;4.786;2023-03-12T01:37:17;7.40;;;3.07;;
21038;SDS011;10678;51.002;4.786;2023-03-12T01:39:42;12.30;;;3.67;;
21038;SDS011;10678;51.002;4.786;2023-03-12T01:42:08;11.40;;;3.57;;
21038;SDS011;10678;51.002;4.786;2023-03-12T01:47:20;9.70;;;3.80;;
21038;SDS011;10678;51.002;4.786;2023-03-12T01:49:47;12.77;;;3.90;;
21038;SDS011;10678;51.002;4.786;2023-03-12T01:52:27;8.73;;;3.43;;
21038;SDS011;10678;51.002;4.786;2023-03-12T01:54:57;13.37;;;3.00;;
21038;SDS011;10678;51.002;4.786;2023-03-12T01:57:26;7.97;;;3.50;;
21038;SDS011;10678;51.002;4.786;2023-03-12T02:00:00;7.70;;;3.17;;
21038;SDS011;10678;51.002;4.786;2023-03-12T02:02:31;7.80;;;3.13;;
21038;SDS011;10678;51.002;4.786;2023-03-12T02:05:04;9.47;;;2.90;;
21038;SDS011;10678;51.002;4.786;2023-03-12T02:07:51;12.07;;;3.27;;
21038;SDS011;10678;51.002;4.786;2023-03-12T02:10:17;9.10;;;2.87;;
21038;SDS011;10678;51.002;4.786;2023-03-12T02:12:43;7.13;;;2.50;;
21038;SDS011;10678;51.002;4.786;2023-03-12T02:15:09;8.97;;;2.80;;
21038;SDS011;10678;51.002;4.786;2023-03-12T02:17:36;7.80;;;2.50;;
21038;SDS011;10678;51.002;4.786;2023-03-12T02:22:49;10.87;;;2.67;;
21038;SDS011;10678;51.002;4.786;2023-03-12T02:25:29;6.00;;;2.60;;
21038;SDS011;10678;51.002;4.786;2023-03-12T02:28:02;10.60;;;2.50;;
21038;SDS011;10678;51.002;4.786;2023-03-12T02:30:31;7.60;;;2.17;;
21038;SDS011;10678;51.002;4.786;2023-03-12T02:33:01;9.27;;;2.77;;
21038;SDS011;10678;51.002;4.786;2023-03-12T02:35:30;7.20;;;2.07;;
21038;SDS011;10678;51.002;4.786;2023-03-12T02:37:56;6.80;;;2.40;;
21038;SDS011;10678;51.002;4.786;2023-03-12T02:40:33;5.63;;;2.23;;
21038;SDS011;10678;51.002;4.786;2023-03-12T02:43:04;8.63;;;2.60;;
21038;SDS011;10678;51.002;4.786;2023-03-12T02:45:31;6.87;;;2.50;;
21038;SDS011;10678;51.002;4.786;2023-03-12T02:48:00;5.53;;;2.07;;
21038;SDS011;10678;51.002;4.786;2023-03-12T02:50:26;8.07;;;2.40;;
21038;SDS011;10678;51.002;4.786;2023-03-12T02:52:52;8.63;;;2.50;;
21038;SDS011;10678;51.002;4.786;2023-03-12T02:55:17;7.30;;;2.80;;
21038;SDS011;10678;51.002;4.786;2023-03-12T02:57:43;9.00;;;2.53;;
21038;SDS011;10678;51.002;4.786;2023-03-12T03:00:09;6.77;;;2.60;;
21038;SDS011;10678;51.002;4.786;2023-03-12T03:02:36;7.00;;;2.30;;
21038;SDS011;10678;51.002;4.786;2023-03-12T03:05:03;6.73;;;2.57;;
21038;SDS011;10678;51.002;4.786;2023-03-12T03:07:29;6.93;;;2.60;;
21038;SDS011;10678;51.002;4.786;2023-03-12T03:09:54;7.77;;;2.43;;
21038;SDS011;10678;51.002;4.786;2023-03-12T03:12:20;7.03;;;2.23;;
21038;SDS011;10678;51.002;4.786;2023-03-12T03:14:46;7.03;;;2.13;;
21038;SDS011;10678;51.002;4.786;2023-03-12T03:17:12;9.67;;;2.40;;
21038;SDS011;10678;51.002;4.786;2023-03-12T03:19:38;8.13;;;2.30;;
21038;SDS011;10678;51.002;4.786;2023-03-12T03:22:04;5.53;;;2.20;;
21038;SDS011;10678;51.002;4.786;2023-03-12T03:24:30;6.37;;;2.07;;
21038;SDS011;10678;51.002;4.786;2023-03-12T03:26:55;6.73;;;2.37;;
21038;SDS011;10678;51.002;4.786;2023-03-12T03:29:21;9.27;;;2.73;;
21038;SDS011;10678;51.002;4.786;2023-03-12T03:31:47;13.10;;;2.30;;
21038;SDS011;10678;51.002;4.786;2023-03-12T03:34:12;6.20;;;2.00;;
21038;SDS011;10678;51.002;4.786;2023-03-12T03:36:38;6.93;;;2.37;;
21038;SDS011;10678;51.002;4.786;2023-03-12T03:39:03;8.37;;;3.07;;
21038;SDS011;10678;51.002;4.786;2023-03-12T03:41:29;4.80;;;1.83;;
21038;SDS011;10678;51.002;4.786;2023-03-12T03:43:57;8.63;;;2.90;;
21038;SDS011;10678;51.002;4.786;2023-03-12T03:46:23;7.83;;;2.50;;
21038;SDS011;10678;51.002;4.786;2023-03-12T03:48:48;4.90;;;1.80;;
21038;SDS011;10678;51.002;4.786;2023-03-12T03:51:15;7.63;;;2.17;;
21038;SDS011;10678;51.002;4.786;2023-03-12T03:53:40;6.30;;;1.97;;
21038;SDS011;10678;51.002;4.786;2023-03-12T03:56:07;9.13;;;2.63;;
21038;SDS011;10678;51.002;4.786;2023-03-12T03:58:34;4.87;;;1.93;;
21038;SDS011;10678;51.002;4.786;2023-03-12T04:01:00;8.23;;;1.90;;
21038;SDS011;10678;51.002;4.786;2023-03-12T04:03:25;7.03;;;2.13;;
21038;SDS011;10678;51.002;4.786;2023-03-12T04:05:58;6.47;;;1.90;;
21038;SDS011;10678;51.002;4.786;2023-03-12T04:08:25;5.07;;;2.10;;
21038;SDS011;10678;51.002;4.786;2023-03-12T04:10:51;6.67;;;2.23;;
21038;SDS011;10678;51.002;4.786;2023-03-12T04:13:17;7.80;;;2.23;;
21038;SDS011;10678;51.002;4.786;2023-03-12T04:15:47;4.63;;;2.23;;
21038;SDS011;10678;51.002;4.786;2023-03-12T04:18:14;8.57;;;2.17;;
21038;SDS011;10678;51.002;4.786;2023-03-12T04:20:40;8.17;;;2.70;;
21038;SDS011;10678;51.002;4.786;2023-03-12T04:23:06;5.90;;;2.13;;
21038;SDS011;10678;51.002;4.786;2023-03-12T04:25:31;6.17;;;2.20;;
21038;SDS011;10678;51.002;4.786;2023-03-12T04:27:57;6.70;;;2.20;;
21038;SDS011;10678;51.002;4.786;2023-03-12T04:30:23;9.13;;;3.07;;
21038;SDS011;10678;51.002;4.786;2023-03-12T04:32:48;7.50;;;2.20;;
21038;SDS011;10678;51.002;4.786;2023-03-12T04:35:14;9.37;;;2.30;;
21038;SDS011;10678;51.002;4.786;2023-03-12T04:37:40;7.93;;;2.43;;
21038;SDS011;10678;51.002;4.786;2023-03-12T04:40:05;9.23;;;2.30;;
21038;SDS011;10678;51.002;4.786;2023-03-12T04:42:34;8.27;;;2.40;;
21038;SDS011;10678;51.002;4.786;2023-03-12T04:44:59;7.57;;;2.27;;
21038;SDS011;10678;51.002;4.786;2023-03-12T04:47:25;9.00;;;2.40;;
21038;SDS011;10678;51.002;4.786;2023-03-12T04:49:51;5.87;;;2.33;;
21038;SDS011;10678;51.002;4.786;2023-03-12T04:52:17;9.73;;;3.40;;
21038;SDS011;10678;51.002;4.786;2023-03-12T04:54:42;9.00;;;2.30;;
21038;SDS011;10678;51.002;4.786;2023-03-12T04:57:08;5.37;;;2.03;;
21038;SDS011;10678;51.002;4.786;2023-03-12T04:59:34;7.90;;;2.60;;
21038;SDS011;10678;51.002;4.786;2023-03-12T05:02:00;7.77;;;2.73;;
21038;SDS011;10678;51.002;4.786;2023-03-12T05:04:25;7.70;;;2.33;;
21038;SDS011;10678;51.002;4.786;2023-03-12T05:06:51;6.03;;;2.30;;
21038;SDS011;10678;51.002;4.786;2023-03-12T05:09:16;9.43;;;2.43;;
21038;SDS011;10678;51.002;4.786;2023-03-12T05:11:42;9.10;;;2.40;;
21038;SDS011;10678;51.002;4.786;2023-03-12T05:14:08;9.80;;;2.83;;
21038;SDS011;10678;51.002;4.786;2023-03-12T05:16:40;6.73;;;2.53;;
21038;SDS011;10678;51.002;4.786;2023-03-12T05:19:06;6.40;;;2.90;;
21038;SDS011;10678;51.002;4.786;2023-03-12T05:21:32;8.80;;;2.67;;
21038;SDS011;10678;51.002;4.786;2023-03-12T05:23:57;7.30;;;3.67;;
21038;SDS011;10678;51.002;4.786;2023-03-12T05:28:51;8.37;;;2.90;;
21038;SDS011;10678;51.002;4.786;2023-03-12T05:31:18;6.43;;;2.87;;
21038;SDS011;10678;51.002;4.786;2023-03-12T05:33:44;6.00;;;3.43;;
21038;SDS011;10678;51.002;4.786;2023-03-12T05:36:11;6.73;;;2.60;;
21038;SDS011;10678;51.002;4.786;2023-03-12T05:38:37;7.40;;;2.97;;
21038;SDS011;10678;51.002;4.786;2023-03-12T05:41:03;12.47;;;3.50;;
21038;SDS011;10678;51.002;4.786;2023-03-12T05:43:29;14.13;;;3.23;;
21038;SDS011;10678;51.002;4.786;2023-03-12T05:45:59;5.47;;;2.63;;
21038;SDS011;10678;51.002;4.786;2023-03-12T05:48:27;6.13;;;2.77;;
21038;SDS011;10678;51.002;4.786;2023-03-12T05:50:53;8.50;;;3.20;;
21038;SDS011;10678;51.002;4.786;2023-03-12T05:53:19;8.17;;;2.93;;
21038;SDS011;10678;51.002;4.786;2023-03-12T05:55:45;5.87;;;2.90;;
21038;SDS011;10678;51.002;4.786;2023-03-12T05:58:10;7.57;;;3.00;;
21038;SDS011;10678;51.002;4.786;2023-03-12T06:00:36;8.43;;;3.50;;
21038;SDS011;10678;51.002;4.786;2023-03-12T06:03:05;7.87;;;3.30;;
21038;SDS011;10678;51.002;4.786;2023-03-12T06:05:32;12.07;;;3.90;;
21038;SDS011;10678;51.002;4.786;2023-03-12T06:07:59;9.77;;;3.07;;
21038;SDS011;10678;51.002;4.786;2023-03-12T06:10:25;8.07;;;3.40;;
21038;SDS011;10678;51.002;4.786;2023-03-12T06:12:51;10.33;;;3.90;;
21038;SDS011;10678;51.002;4.786;2023-03-12T06:15:16;9.07;;;4.27;;
21038;SDS011;10678;51.002;4.786;2023-03-12T06:17:42;14.23;;;4.80;;
21038;SDS011;10678;51.002;4.786;2023-03-12T06:20:08;7.43;;;3.67;;
21038;SDS011;10678;51.002;4.786;2023-03-12T06:22:34;10.17;;;4.73;;
21038;SDS011;10678;51.002;4.786;2023-03-12T06:24:59;9.67;;;4.53;;
21038;SDS011;10678;51.002;4.786;2023-03-12T06:27:25;11.03;;;4.77;;
21038;SDS011;10678;51.002;4.786;2023-03-12T06:29:51;12.23;;;4.43;;
21038;SDS011;10678;51.002;4.786;2023-03-12T06:32:16;11.03;;;4.53;;
21038;SDS011;10678;51.002;4.786;2023-03-12T06:34:42;11.40;;;4.63;;
21038;SDS011;10678;51.002;4.786;2023-03-12T06:37:08;10.90;;;4.43;;
21038;SDS011;10678;51.002;4.786;2023-03-12T06:39:34;9.03;;;4.93;;
21038;SDS011;10678;51.002;4.786;2023-03-12T06:41:59;9.40;;;4.67;;
21038;SDS011;10678;51.002;4.786;2023-03-12T06:44:25;8.20;;;5.07;;
21038;SDS011;10678;51.002;4.786;2023-03-12T06:46:51;9.80;;;5.67;;
21038;SDS011;10678;51.002;4.786;2023-03-12T06:49:16;8.80;;;5.13;;
21038;SDS011;10678;51.002;4.786;2023-03-12T06:51:42;11.90;;;4.70;;
21038;SDS011;10678;51.002;4.786;2023-03-12T06:54:08;13.93;;;5.63;;
21038;SDS011;10678;51.002;4.786;2023-03-12T06:56:33;12.07;;;5.70;;
21038;SDS011;10678;51.002;4.786;2023-03-12T06:58:59;11.73;;;5.73;;
21038;SDS011;10678;51.002;4.786;2023-03-12T07:01:24;11.83;;;5.67;;
21038;SDS011;10678;51.002;4.786;2023-03-12T07:03:50;14.63;;;6.27;;
21038;SDS011;10678;51.002;4.786;2023-03-12T07:06:20;10.40;;;6.27;;
21038;SDS011;10678;51.002;4.786;2023-03-12T07:08:47;18.07;;;7.20;;
21038;SDS011;10678;51.002;4.786;2023-03-12T07:11:13;11.30;;;6.07;;
21038;SDS011;10678;51.002;4.786;2023-03-12T07:13:39;15.37;;;7.13;;
21038;SDS011;10678;51.002;4.786;2023-03-12T07:16:05;13.33;;;7.40;;
21038;SDS011;10678;51.002;4.786;2023-03-12T07:18:32;14.77;;;6.57;;
21038;SDS011;10678;51.002;4.786;2023-03-12T07:20:57;13.60;;;6.40;;
21038;SDS011;10678;51.002;4.786;2023-03-12T07:23:23;11.13;;;6.57;;
21038;SDS011;10678;51.002;4.786;2023-03-12T07:25:49;13.03;;;7.00;;
21038;SDS011;10678;51.002;4.786;2023-03-12T07:28:16;13.73;;;7.30;;
21038;SDS011;10678;51.002;4.786;2023-03-12T07:30:42;15.50;;;6.97;;
21038;SDS011;10678;51.002;4.786;2023-03-12T07:33:14;12.93;;;7.70;;
21038;SDS011;10678;51.002;4.786;2023-03-12T07:35:40;14.63;;;7.63;;
21038;SDS011;10678;51.002;4.786;2023-03-12T07:38:06;15.47;;;8.03;;
21038;SDS011;10678;51.002;4.786;2023-03-12T07:40:32;16.97;;;7.53;;
21038;SDS011;10678;51.002;4.786;2023-03-12T07:42:58;15.60;;;8.17;;
21038;SDS011;10678;51.002;4.786;2023-03-12T07:45:24;17.33;;;8.13;;
21038;SDS011;10678;51.002;4.786;2023-03-12T07:47:50;13.87;;;8.03;;
21038;SDS011;10678;51.002;4.786;2023-03-12T07:50:16;17.80;;;8.80;;
21038;SDS011;10678;51.002;4.786;2023-03-12T07:52:42;16.03;;;7.80;;
21038;SDS011;10678;51.002;4.786;2023-03-12T07:55:09;12.70;;;7.17;;
21038;SDS011;10678;51.002;4.786;2023-03-12T07:57:36;17.10;;;7.73;;
21038;SDS011;10678;51.002;4.786;2023-03-12T08:00:02;17.30;;;8.90;;
21038;SDS011;10678;51.002;4.786;2023-03-12T08:02:31;21.60;;;8.93;;
21038;SDS011;10678;51.002;4.786;2023-03-12T08:04:58;18.50;;;8.13;;
21038;SDS011;10678;51.002;4.786;2023-03-12T08:07:24;18.85;;;7.93;;
21038;SDS011;10678;51.002;4.786;2023-03-12T08:09:49;18.10;;;8.10;;
21038;SDS011;10678;51.002;4.786;2023-03-12T08:12:15;16.65;;;7.95;;
21038;SDS011;10678;51.002;4.786;2023-03-12T08:14:41;20.02;;;8.68;;
21038;SDS011;10678;51.002;4.786;2023-03-12T08:17:06;25.75;;;8.98;;
21038;SDS011;10678;51.002;4.786;2023-03-12T08:19:32;20.70;;;10.05;;
21038;SDS011;10678;51.002;4.786;2023-03-12T08:21:58;21.45;;;8.80;;
21038;SDS011;10678;51.002;4.786;2023-03-12T08:24:23;23.55;;;8.70;;
21038;SDS011;10678;51.002;4.786;2023-03-12T08:26:49;28.45;;;9.68;;
21038;SDS011;10678;51.002;4.786;2023-03-12T08:29:15;19.25;;;9.57;;
21038;SDS011;10678;51.002;4.786;2023-03-12T08:31:41;21.70;;;8.73;;
21038;SDS011;10678;51.002;4.786;2023-03-12T08:34:07;23.95;;;9.48;;
21038;SDS011;10678;51.002;4.786;2023-03-12T08:36:32;39.05;;;9.95;;
21038;SDS011;10678;51.002;4.786;2023-03-12T08:38:59;32.20;;;10.80;;
21038;SDS011;10678;51.002;4.786;2023-03-12T08:41:25;35.67;;;11.98;;
21038;SDS011;10678;51.002;4.786;2023-03-12T08:43:50;29.65;;;9.65;;
21038;SDS011;10678;51.002;4.786;2023-03-12T08:46:16;36.20;;;10.55;;
21038;SDS011;10678;51.002;4.786;2023-03-12T08:48:42;32.35;;;11.60;;
21038;SDS011;10678;51.002;4.786;2023-03-12T08:51:07;48.55;;;13.10;;
21038;SDS011;10678;51.002;4.786;2023-03-12T08:53:33;37.10;;;10.95;;
21038;SDS011;10678;51.002;4.786;2023-03-12T08:56:00;37.28;;;10.98;;
21038;SDS011;10678;51.002;4.786;2023-03-12T08:58:27;37.15;;;11.57;;
21038;SDS011;10678;51.002;4.786;2023-03-12T09:00:53;39.17;;;10.73;;
21038;SDS011;10678;51.002;4.786;2023-03-12T09:03:19;44.22;;;10.93;;
21038;SDS011;10678;51.002;4.786;2023-03-12T09:05:46;35.55;;;10.55;;
21038;SDS011;10678;51.002;4.786;2023-03-12T09:08:12;41.72;;;10.95;;
21038;SDS011;10678;51.002;4.786;2023-03-12T09:10:39;40.78;;;10.18;;
21038;SDS011;10678;51.002;4.786;2023-03-12T09:13:05;42.88;;;9.88;;
21038;SDS011;10678;51.002;4.786;2023-03-12T09:15:31;44.20;;;9.15;;
21038;SDS011;10678;51.002;4.786;2023-03-12T09:17:57;40.28;;;9.70;;
21038;SDS011;10678;51.002;4.786;2023-03-12T09:20:23;37.80;;;9.10;;
21038;SDS011;10678;51.002;4.786;2023-03-12T09:22:49;37.80;;;10.55;;
21038;SDS011;10678;51.002;4.786;2023-03-12T09:25:15;42.03;;;9.18;;
21038;SDS011;10678;51.002;4.786;2023-03-12T09:27:45;36.35;;;8.93;;
21038;SDS011;10678;51.002;4.786;2023-03-12T09:30:13;41.03;;;8.18;;
21038;SDS011;10678;51.002;4.786;2023-03-12T09:32:42;33.00;;;7.47;;
21038;SDS011;10678;51.002;4.786;2023-03-12T09:35:09;39.00;;;8.60;;
21038;SDS011;10678;51.002;4.786;2023-03-12T09:37:36;30.00;;;7.93;;
21038;SDS011;10678;51.002;4.786;2023-03-12T09:40:02;31.75;;;6.57;;
21038;SDS011;10678;51.002;4.786;2023-03-12T09:45:19;36.92;;;9.02;;
21038;SDS011;10678;51.002;4.786;2023-03-12T09:47:49;40.20;;;7.45;;
21038;SDS011;10678;51.002;4.786;2023-03-12T09:50:26;32.15;;;6.95;;
21038;SDS011;10678;51.002;4.786;2023-03-12T09:55:39;35.47;;;7.35;;
21038;SDS011;10678;51.002;4.786;2023-03-12T10:03:56;27.52;;;5.70;;
21038;SDS011;10678;51.002;4.786;2023-03-12T10:11:53;28.58;;;6.25;;
21038;SDS011;10678;51.002;4.786;2023-03-12T10:19:45;26.05;;;5.07;;
21038;SDS011;10678;51.002;4.786;2023-03-12T10:22:30;33.47;;;5.80;;
21038;SDS011;10678;51.002;4.786;2023-03-12T10:28:10;28.45;;;5.70;;
21038;SDS011;10678;51.002;4.786;2023-03-12T10:30:56;28.23;;;5.07;;
21038;SDS011;10678;51.002;4.786;2023-03-12T10:33:27;28.02;;;4.68;;
21038;SDS011;10678;51.002;4.786;2023-03-12T10:36:49;26.27;;;5.68;;
21038;SDS011;10678;51.002;4.786;2023-03-12T10:39:03;20.17;;;4.55;;
21038;SDS011;10678;51.002;4.786;2023-03-12T10:41:31;29.27;;;4.85;;
21038;SDS011;10678;51.002;4.786;2023-03-12T10:44:00;30.02;;;4.95;;
21038;SDS011;10678;51.002;4.786;2023-03-12T10:49:21;26.90;;;4.85;;
21038;SDS011;10678;51.002;4.786;2023-03-12T10:52:21;35.30;;;5.85;;
21038;SDS011;10678;51.002;4.786;2023-03-12T10:54:41;28.45;;;5.55;;
21038;SDS011;10678;51.002;4.786;2023-03-12T10:57:09;42.55;;;5.90;;
21038;SDS011;10678;51.002;4.786;2023-03-12T10:59:37;36.55;;;5.95;;
21038;SDS011;10678;51.002;4.786;2023-03-12T11:04:56;21.17;;;4.85;;
21038;SDS011;10678;51.002;4.786;2023-03-12T11:10:36;40.78;;;6.32;;
21038;SDS011;10678;51.002;4.786;2023-03-12T11:15:29;27.27;;;5.00;;
21038;SDS011;10678;51.002;4.786;2023-03-12T11:18:36;28.80;;;5.97;;
21038;SDS011;10678;51.002;4.786;2023-03-12T11:23:32;29.20;;;5.97;;
21038;SDS011;10678;51.002;4.786;2023-03-12T11:26:17;30.98;;;5.90;;
21038;SDS011;10678;51.002;4.786;2023-03-12T11:28:49;25.13;;;4.97;;
21038;SDS011;10678;51.002;4.786;2023-03-12T11:31:21;26.45;;;5.72;;
21038;SDS011;10678;51.002;4.786;2023-03-12T11:33:51;26.02;;;4.97;;
21038;SDS011;10678;51.002;4.786;2023-03-12T11:39:08;28.35;;;5.00;;
21038;SDS011;10678;51.002;4.786;2023-03-12T11:47:16;28.05;;;5.65;;
21038;SDS011;10678;51.002;4.786;2023-03-12T11:52:46;31.23;;;5.97;;
21038;SDS011;10678;51.002;4.786;2023-03-12T12:03:54;35.78;;;5.63;;
21038;SDS011;10678;51.002;4.786;2023-03-12T12:06:07;28.98;;;5.28;;
21038;SDS011;10678;51.002;4.786;2023-03-12T12:09:01;37.20;;;6.47;;
21038;SDS011;10678;51.002;4.786;2023-03-12T12:11:53;28.60;;;5.72;;
21038;SDS011;10678;51.002;4.786;2023-03-12T12:14:50;24.13;;;4.90;;
21038;SDS011;10678;51.002;4.786;2023-03-12T12:17:45;31.40;;;6.93;;
21038;SDS011;10678;51.002;4.786;2023-03-12T12:23:16;31.10;;;6.15;;
21038;SDS011;10678;51.002;4.786;2023-03-12T12:34:10;29.77;;;5.30;;
21038;SDS011;10678;51.002;4.786;2023-03-12T12:39:49;39.75;;;7.00;;
21038;SDS011;10678;51.002;4.786;2023-03-12T12:43:35;30.38;;;5.50;;
21038;SDS011;10678;51.002;4.786;2023-03-12T12:45:32;31.50;;;6.32;;
21038;SDS011;10678;51.002;4.786;2023-03-12T12:48:07;36.70;;;6.50;;
21038;SDS011;10678;51.002;4.786;2023-03-12T12:50:55;26.85;;;5.55;;
21038;SDS011;10678;51.002;4.786;2023-03-12T12:56:32;32.25;;;5.45;;
21038;SDS011;10678;51.002;4.786;2023-03-12T12:59:20;34.88;;;5.82;;
21038;SDS011;10678;51.002;4.786;2023-03-12T13:02:16;29.60;;;6.20;;
21038;SDS011;10678;51.002;4.786;2023-03-12T13:04:45;34.83;;;5.60;;
21038;SDS011;10678;51.002;4.786;2023-03-12T13:14:54;32.08;;;5.10;;
21038;SDS011;10678;51.002;4.786;2023-03-12T13:19:47;22.30;;;4.80;;
21038;SDS011;10678;51.002;4.786;2023-03-12T13:25:16;21.50;;;3.55;;
21038;SDS011;10678;51.002;4.786;2023-03-12T13:30:54;32.53;;;5.78;;
21038;SDS011;10678;51.002;4.786;2023-03-12T13:41:33;23.95;;;4.35;;
21038;SDS011;10678;51.002;4.786;2023-03-12T13:47:02;27.08;;;5.03;;
21038;SDS011;10678;51.002;4.786;2023-03-12T13:54:42;26.88;;;5.10;;
21038;SDS011;10678;51.002;4.786;2023-03-12T13:57:28;25.10;;;4.80;;
21038;SDS011;10678;51.002;4.786;2023-03-12T13:59:59;27.63;;;5.85;;
21038;SDS011;10678;51.002;4.786;2023-03-12T14:02:31;30.20;;;6.07;;
21038;SDS011;10678;51.002;4.786;2023-03-12T14:05:06;28.52;;;4.35;;
21038;SDS011;10678;51.002;4.786;2023-03-12T14:12:41;29.27;;;5.47;;
21038;SDS011;10678;51.002;4.786;2023-03-12T14:18:00;28.25;;;5.45;;
21038;SDS011;10678;51.002;4.786;2023-03-12T14:20:33;25.27;;;5.28;;
21038;SDS011;10678;51.002;4.786;2023-03-12T14:23:03;27.58;;;4.50;;
21038;SDS011;10678;51.002;4.786;2023-03-12T14:25:35;25.60;;;4.70;;
21038;SDS011;10678;51.002;4.786;2023-03-12T14:28:21;28.13;;;4.88;;
21038;SDS011;10678;51.002;4.786;2023-03-12T14:33:16;26.60;;;5.43;;
21038;SDS011;10678;51.002;4.786;2023-03-12T14:35:53;28.90;;;5.25;;
21038;SDS011;10678;51.002;4.786;2023-03-12T14:38:40;30.17;;;4.95;;
21038;SDS011;10678;51.002;4.786;2023-03-12T14:41:14;32.60;;;5.13;;
21038;SDS011;10678;51.002;4.786;2023-03-12T14:43:45;23.95;;;5.38;;
21038;SDS011;10678;51.002;4.786;2023-03-12T14:46:19;29.50;;;5.40;;
21038;SDS011;10678;51.002;4.786;2023-03-12T14:48:50;39.10;;;5.63;;
21038;SDS011;10678;51.002;4.786;2023-03-12T14:51:22;26.20;;;5.20;;
21038;SDS011;10678;51.002;4.786;2023-03-12T14:53:50;23.00;;;4.13;;
21038;SDS011;10678;51.002;4.786;2023-03-12T14:56:24;29.60;;;5.30;;
21038;SDS011;10678;51.002;4.786;2023-03-12T14:58:53;29.70;;;4.22;;
21038;SDS011;10678;51.002;4.786;2023-03-12T15:01:20;32.03;;;5.25;;
21038;SDS011;10678;51.002;4.786;2023-03-12T15:03:52;34.40;;;5.00;;
21038;SDS011;10678;51.002;4.786;2023-03-12T15:06:34;25.48;;;4.65;;
21038;SDS011;10678;51.002;4.786;2023-03-12T15:09:03;27.15;;;4.30;;
21038;SDS011;10678;51.002;4.786;2023-03-12T15:11:33;21.80;;;4.15;;
21038;SDS011;10678;51.002;4.786;2023-03-12T15:14:01;23.50;;;5.05;;
21038;SDS011;10678;51.002;4.786;2023-03-12T15:16:38;34.95;;;5.25;;
21038;SDS011;10678;51.002;4.786;2023-03-12T15:19:05;24.52;;;5.25;;
21038;SDS011;10678;51.002;4.786;2023-03-12T15:21:37;28.33;;;5.50;;
21038;SDS011;10678;51.002;4.786;2023-03-12T15:24:04;23.33;;;4.60;;
21038;SDS011;10678;51.002;4.786;2023-03-12T15:26:31;32.00;;;4.97;;
21038;SDS011;10678;51.002;4.786;2023-03-12T15:31:47;25.60;;;4.80;;
21038;SDS011;10678;51.002;4.786;2023-03-12T15:34:25;18.08;;;4.68;;
21038;SDS011;10678;51.002;4.786;2023-03-12T15:36:56;25.65;;;4.57;;
21038;SDS011;10678;51.002;4.786;2023-03-12T15:39:32;28.92;;;4.03;;
21038;SDS011;10678;51.002;4.786;2023-03-12T15:42:09;25.48;;;5.85;;
21038;SDS011;10678;51.002;4.786;2023-03-12T15:47:13;23.02;;;4.28;;
21038;SDS011;10678;51.002;4.786;2023-03-12T15:49:46;21.27;;;3.72;;
21038;SDS011;10678;51.002;4.786;2023-03-12T15:57:43;20.20;;;3.80;;
21038;SDS011;10678;51.002;4.786;2023-03-12T16:02:48;23.23;;;5.32;;
21038;SDS011;10678;51.002;4.786;2023-03-12T16:05:17;20.02;;;4.05;;
21038;SDS011;10678;51.002;4.786;2023-03-12T16:07:44;23.60;;;4.38;;
21038;SDS011;10678;51.002;4.786;2023-03-12T16:10:13;24.08;;;3.95;;
21038;SDS011;10678;51.002;4.786;2023-03-12T16:12:41;18.58;;;3.40;;
21038;SDS011;10678;51.002;4.786;2023-03-12T16:15:19;24.67;;;4.07;;
21038;SDS011;10678;51.002;4.786;2023-03-12T16:17:50;20.42;;;3.40;;
21038;SDS011;10678;51.002;4.786;2023-03-12T16:20:16;25.63;;;3.90;;
21038;SDS011;10678;51.002;4.786;2023-03-12T16:22:42;24.25;;;4.95;;
21038;SDS011;10678;51.002;4.786;2023-03-12T16:25:08;25.15;;;5.45;;
21038;SDS011;10678;51.002;4.786;2023-03-12T16:27:34;26.00;;;4.35;;
21038;SDS011;10678;51.002;4.786;2023-03-12T16:30:05;24.25;;;5.70;;
21038;SDS011;10678;51.002;4.786;2023-03-12T16:32:35;24.15;;;4.82;;
21038;SDS011;10678;51.002;4.786;2023-03-12T16:35:04;24.90;;;5.03;;
21038;SDS011;10678;51.002;4.786;2023-03-12T16:37:35;30.80;;;4.85;;
21038;SDS011;10678;51.002;4.786;2023-03-12T16:40:00;29.83;;;5.68;;
21038;SDS011;10678;51.002;4.786;2023-03-12T16:42:26;26.10;;;5.43;;
21038;SDS011;10678;51.002;4.786;2023-03-12T16:44:51;27.35;;;5.15;;
21038;SDS011;10678;51.002;4.786;2023-03-12T16:47:17;26.70;;;5.10;;
21038;SDS011;10678;51.002;4.786;2023-03-12T16:49:43;24.58;;;4.88;;
21038;SDS011;10678;51.002;4.786;2023-03-12T16:52:18;24.45;;;4.47;;
21038;SDS011;10678;51.002;4.786;2023-03-12T16:54:49;28.95;;;4.03;;
21038;SDS011;10678;51.002;4.786;2023-03-12T16:57:18;23.00;;;4.40;;
21038;SDS011;10678;51.002;4.786;2023-03-12T17:00:07;22.77;;;4.38;;
21038;SDS011;10678;51.002;4.786;2023-03-12T17:02:36;25.33;;;3.72;;
21038;SDS011;10678;51.002;4.786;2023-03-12T17:05:03;41.03;;;4.40;;
21038;SDS011;10678;51.002;4.786;2023-03-12T17:07:28;25.70;;;4.20;;
21038;SDS011;10678;51.002;4.786;2023-03-12T17:09:54;25.38;;;4.00;;